Portada
METAR-TAF:

METAR-TAF

Aeroports :

Plataforma petroliera

Heimdal, Noruega

latitud: 59-34-12N, longitud: 2-13-48E, altitud: 10 m

Observació

L'informe es va fer fa 30 minuts, a les 20:50 UTC
Vent 25 kt del Oest/Sud-Oest
Temperatura 5°C
Humitat 75%
Pressió 995 hPa
Visibilitat 10 km o més

METAR: ENHM 182050Z AUTO 24025KT 9999NDV FEW024/// SCT051/// BKN180/// 05/01 Q0995 W08/S5

Hora: 22:20 (21:20 UTC)

Pronòstic

L'informe es va fer fa 7 hores i 20 minuts, a les 14:00 UTC
Pronòstic vàlid del 18 a les 15 UTC al 18 a les 18 UTC
Vent 28 kt del Oest/Sud-Oest
Visibilitat 10 km o més
Escasses núvols a una alçada de 2000 ft, Cumulus congestus.
Cel ennuvolat a una alçada de 4000 ft
xàfecs de pluja
Temporalment
l' 18 a les 15 UTC al 18 a les 18 UTC
Cel ennuvolat a una alçada de 2000 ft, Cumulonimbus.
xàfecs de pluja

TAF: ENHM 181400Z 1815/1818 24028KT 9999 -SHRA FEW020TCU BKN040 TEMPO 1815/1818 SHRA BKN020CB

Observacions i pronòstics meteorològics de més de 4000 aeroports (METAR i TAF).

Les estacions disponibles són els punts grocs i vermells al mapa.

Posi el ratolí al punt desitjat per veure el nom de l'estació.

Feu clic per veure les observacions i els pronòstics meteorològics.

Per canviar el mapa: feu clic els botons verds amb una creu de color negre per apropar; al botó verd amb un guió per allunyar la imatge; o en les fletxes verdes per a mapes adjacents.


METAR-TAF: